createdAt,value
2022-09-30T00:00:27.969Z,17.19
2022-09-30T00:02:02.603Z,17.18
2022-09-30T00:03:36.924Z,17.20
2022-09-30T00:05:10.462Z,17.12
2022-09-30T00:06:44.129Z,17.09
2022-09-30T00:08:17.281Z,17.06
2022-09-30T00:09:50.432Z,17.06
2022-09-30T00:11:25.465Z,17.04
2022-09-30T00:12:59.012Z,17.06
2022-09-30T00:14:32.266Z,17.03
2022-09-30T00:16:05.069Z,17.01
2022-09-30T00:17:39.956Z,16.96
2022-09-30T00:19:14.535Z,16.88
2022-09-30T00:20:46.735Z,16.87
2022-09-30T00:22:19.891Z,16.88
2022-09-30T00:23:52.364Z,16.88
2022-09-30T00:25:25.586Z,16.87
2022-09-30T00:26:58.825Z,16.85
2022-09-30T00:28:32.626Z,16.83
2022-09-30T00:30:06.555Z,16.84
2022-09-30T00:31:40.250Z,16.83
2022-09-30T00:33:13.925Z,16.82
2022-09-30T00:34:47.089Z,16.80
2022-09-30T00:36:20.290Z,16.76
2022-09-30T00:37:55.255Z,16.74
2022-09-30T00:39:30.218Z,16.75
2022-09-30T00:41:04.671Z,16.72
2022-09-30T00:42:41.722Z,16.66
2022-09-30T00:44:44.814Z,16.48
2022-09-30T00:46:22.561Z,16.35
2022-09-30T00:47:57.755Z,16.26
2022-09-30T00:49:31.383Z,16.26
2022-09-30T00:51:07.973Z,16.25
2022-09-30T00:52:40.822Z,16.22
2022-09-30T00:54:19.308Z,16.19
2022-09-30T00:55:58.879Z,16.22
2022-09-30T00:57:32.266Z,16.22
2022-09-30T00:59:10.040Z,16.27
2022-09-30T01:00:42.988Z,16.22
2022-09-30T01:02:16.664Z,16.14
2022-09-30T01:03:55.175Z,16.13
2022-09-30T01:05:32.539Z,16.10
2022-09-30T01:07:08.486Z,16.12
2022-09-30T01:08:42.043Z,16.11
2022-09-30T01:10:15.320Z,16.08
2022-09-30T01:11:49.500Z,16.04
2022-09-30T01:13:27.433Z,16.02
2022-09-30T01:15:02.152Z,16.04
2022-09-30T01:16:51.157Z,16.00
2022-09-30T01:18:32.288Z,15.97
2022-09-30T01:20:35.895Z,15.97
2022-09-30T01:22:29.708Z,15.91
2022-09-30T01:24:55.354Z,15.91
2022-09-30T01:26:48.388Z,15.91
2022-09-30T01:28:53.058Z,15.90
2022-09-30T01:30:49.650Z,15.88
2022-09-30T01:32:32.769Z,15.85
2022-09-30T01:34:15.524Z,15.81
2022-09-30T01:36:11.458Z,15.79
2022-09-30T01:37:52.617Z,15.78
2022-09-30T01:39:35.330Z,15.80
2022-09-30T01:41:12.961Z,15.81
2022-09-30T01:42:52.869Z,15.82
2022-09-30T01:44:35.213Z,15.79
2022-09-30T01:46:20.944Z,15.80
2022-09-30T01:48:02.111Z,15.82
2022-09-30T01:49:44.112Z,15.82
2022-09-30T01:51:23.168Z,15.81
2022-09-30T01:53:09.140Z,15.72
2022-09-30T01:54:48.414Z,15.77
2022-09-30T01:56:25.683Z,15.75
2022-09-30T01:58:02.853Z,15.73
2022-09-30T01:59:43.691Z,15.69
2022-09-30T02:01:25.456Z,15.65
2022-09-30T02:03:02.721Z,15.62
2022-09-30T02:04:40.498Z,15.55
2022-09-30T02:06:20.601Z,15.55
2022-09-30T02:07:58.449Z,15.58
2022-09-30T02:09:40.125Z,15.63
2022-09-30T02:11:18.278Z,15.63
2022-09-30T02:12:57.745Z,15.61
2022-09-30T02:14:38.227Z,15.57
2022-09-30T02:16:18.148Z,15.53
2022-09-30T02:17:58.563Z,15.50
2022-09-30T02:19:37.126Z,15.46
2022-09-30T02:21:16.325Z,15.33
2022-09-30T02:22:52.130Z,15.19
2022-09-30T02:24:28.475Z,15.14
2022-09-30T02:26:07.880Z,15.10
2022-09-30T02:27:46.765Z,15.11
2022-09-30T02:29:25.084Z,15.01
2022-09-30T02:31:01.143Z,14.97
2022-09-30T02:32:39.894Z,14.95
2022-09-30T02:34:19.327Z,14.97
2022-09-30T02:35:58.844Z,14.96
2022-09-30T02:37:36.985Z,14.93
2022-09-30T02:39:15.336Z,14.91
2022-09-30T02:40:52.152Z,14.93
2022-09-30T02:42:28.704Z,14.96
2022-09-30T02:44:02.789Z,14.99
2022-09-30T02:45:44.425Z,15.04
2022-09-30T02:47:26.833Z,14.99
2022-09-30T02:49:04.758Z,15.09
2022-09-30T02:50:48.372Z,15.14
2022-09-30T02:52:28.958Z,15.19
2022-09-30T02:54:06.435Z,15.16
2022-09-30T02:55:50.148Z,15.17
2022-09-30T02:57:31.408Z,15.12
2022-09-30T02:59:03.577Z,15.13
2022-09-30T03:00:36.867Z,15.12
2022-09-30T03:02:10.152Z,15.14
2022-09-30T03:03:46.279Z,15.12
2022-09-30T03:05:19.502Z,15.13
2022-09-30T03:06:54.307Z,15.14
2022-09-30T03:08:27.823Z,15.11
2022-09-30T03:10:00.999Z,15.07
2022-09-30T03:11:34.342Z,15.06
2022-09-30T03:13:21.804Z,15.04
2022-09-30T03:15:18.129Z,15.04
2022-09-30T03:17:17.319Z,14.99
2022-09-30T03:19:06.781Z,14.87
2022-09-30T03:20:54.271Z,14.84
2022-09-30T03:22:49.158Z,14.83
2022-09-30T03:24:58.934Z,14.78
2022-09-30T03:26:42.696Z,14.76
2022-09-30T03:28:23.099Z,14.71
2022-09-30T03:30:05.379Z,14.72
2022-09-30T03:31:47.043Z,14.72
2022-09-30T03:33:26.364Z,14.72
2022-09-30T03:35:06.093Z,14.73
2022-09-30T03:36:42.810Z,14.74
2022-09-30T03:38:29.580Z,14.78
2022-09-30T03:40:10.206Z,14.78
2022-09-30T03:41:48.151Z,14.74
2022-09-30T03:43:27.432Z,14.73
2022-09-30T03:45:07.852Z,14.68
2022-09-30T03:46:46.082Z,14.64
2022-09-30T03:48:19.785Z,14.58
2022-09-30T03:49:57.270Z,14.55
2022-09-30T03:51:31.329Z,14.54
2022-09-30T03:53:05.442Z,14.55
2022-09-30T03:54:50.397Z,14.45
2022-09-30T03:56:27.546Z,14.54
2022-09-30T03:58:00.801Z,14.54
2022-09-30T03:59:34.048Z,14.54
2022-09-30T04:01:07.398Z,14.54
2022-09-30T04:02:40.624Z,14.54
2022-09-30T04:04:13.706Z,14.56
2022-09-30T04:05:47.364Z,14.57
2022-09-30T04:07:20.650Z,14.58
2022-09-30T04:08:54.011Z,14.56
2022-09-30T04:10:28.535Z,14.56
2022-09-30T04:12:02.199Z,14.51
2022-09-30T04:13:35.459Z,14.48
2022-09-30T04:15:09.619Z,14.52
2022-09-30T04:16:43.159Z,14.54
2022-09-30T04:18:16.425Z,14.56
2022-09-30T04:19:49.814Z,14.58
2022-09-30T04:21:22.924Z,14.56
2022-09-30T04:22:57.541Z,14.52
2022-09-30T04:24:30.923Z,14.50
2022-09-30T04:26:06.817Z,14.51
2022-09-30T04:27:39.975Z,14.52
2022-09-30T04:29:13.154Z,14.52
2022-09-30T04:30:46.456Z,14.55
2022-09-30T04:32:19.587Z,14.56
2022-09-30T04:33:57.099Z,14.60
2022-09-30T04:35:30.389Z,14.59
2022-09-30T04:37:04.481Z,14.60
2022-09-30T04:38:39.577Z,14.62
2022-09-30T04:40:13.321Z,14.62
2022-09-30T04:41:47.842Z,14.60
2022-09-30T04:43:23.594Z,14.60
2022-09-30T04:44:58.258Z,14.60
2022-09-30T04:46:31.381Z,14.59
2022-09-30T04:48:04.616Z,14.60
2022-09-30T04:49:37.922Z,14.61
2022-09-30T04:51:11.047Z,14.54
2022-09-30T04:52:44.693Z,14.64
2022-09-30T04:54:17.740Z,14.63
2022-09-30T04:55:51.048Z,14.63
2022-09-30T04:57:25.588Z,14.69
2022-09-30T04:58:58.776Z,14.84
2022-09-30T05:00:31.991Z,15.02
2022-09-30T05:02:05.539Z,15.25
2022-09-30T05:03:39.391Z,15.58
2022-09-30T05:05:12.450Z,15.95
2022-09-30T05:06:45.611Z,16.29
2022-09-30T05:08:19.914Z,16.60
2022-09-30T05:09:53.497Z,16.92
2022-09-30T05:11:27.846Z,17.18
2022-09-30T05:13:02.414Z,17.33
2022-09-30T05:14:35.646Z,17.48
2022-09-30T05:16:09.831Z,17.69
2022-09-30T05:17:43.025Z,17.94
2022-09-30T05:19:16.229Z,18.18
2022-09-30T05:20:51.094Z,18.45
2022-09-30T05:22:25.347Z,18.75
2022-09-30T05:23:58.634Z,19.09
2022-09-30T05:25:31.779Z,19.27
2022-09-30T05:27:05.018Z,19.43
2022-09-30T05:28:39.712Z,19.60
2022-09-30T05:30:13.025Z,19.82
2022-09-30T05:31:46.178Z,19.98
2022-09-30T05:33:19.436Z,20.16
2022-09-30T05:34:52.677Z,20.28
2022-09-30T05:36:25.869Z,20.38
2022-09-30T05:37:59.017Z,20.59
2022-09-30T05:39:32.320Z,20.76
2022-09-30T05:41:11.476Z,20.92
2022-09-30T05:42:45.049Z,21.13
2022-09-30T05:44:19.744Z,21.50
2022-09-30T05:45:56.226Z,21.82
2022-09-30T05:47:29.424Z,22.12
2022-09-30T05:49:02.634Z,22.40
2022-09-30T05:50:35.922Z,22.60
2022-09-30T05:52:09.266Z,22.81
2022-09-30T05:53:42.790Z,22.99
2022-09-30T05:55:16.220Z,23.20
2022-09-30T05:56:49.388Z,23.48
2022-09-30T05:58:21.779Z,23.42
2022-09-30T05:59:56.514Z,23.32
2022-09-30T06:01:29.756Z,23.40
2022-09-30T06:03:02.958Z,23.54
2022-09-30T06:04:36.508Z,23.68
2022-09-30T06:06:09.968Z,23.69
2022-09-30T06:07:43.133Z,23.71
2022-09-30T06:09:16.323Z,23.85
2022-09-30T06:10:49.738Z,23.70
2022-09-30T06:12:23.309Z,23.78
2022-09-30T06:13:57.442Z,23.88
2022-09-30T06:15:32.461Z,23.87
2022-09-30T06:17:06.531Z,24.11
2022-09-30T06:18:41.397Z,24.21
2022-09-30T06:20:14.627Z,24.29
2022-09-30T06:21:47.666Z,24.51
2022-09-30T06:23:20.810Z,24.60
2022-09-30T06:24:55.453Z,24.43
2022-09-30T06:26:28.947Z,24.49
2022-09-30T06:28:02.736Z,24.49
2022-09-30T06:29:36.065Z,24.66
2022-09-30T06:31:11.636Z,24.95
2022-09-30T06:32:45.316Z,25.20
2022-09-30T06:34:19.556Z,25.05
2022-09-30T06:35:52.755Z,25.15
2022-09-30T06:37:26.745Z,25.32
2022-09-30T06:39:00.032Z,25.47
2022-09-30T06:40:33.194Z,25.63
2022-09-30T06:42:06.423Z,25.78
2022-09-30T06:43:55.956Z,25.93
2022-09-30T06:45:37.288Z,26.06
2022-09-30T06:47:21.641Z,26.00
2022-09-30T06:49:06.816Z,26.07
2022-09-30T06:50:54.241Z,26.23
2022-09-30T06:52:31.962Z,26.23
2022-09-30T06:54:05.445Z,26.48
2022-09-30T06:55:39.836Z,26.68
2022-09-30T06:57:13.031Z,26.85
2022-09-30T06:58:46.658Z,27.03
2022-09-30T07:00:20.102Z,27.07
2022-09-30T07:01:53.823Z,27.07
2022-09-30T07:03:30.424Z,27.11
2022-09-30T07:05:04.484Z,27.10
2022-09-30T07:06:38.644Z,27.27
2022-09-30T07:08:11.811Z,27.48
2022-09-30T07:09:44.954Z,27.76
2022-09-30T07:11:18.282Z,27.94
2022-09-30T07:12:52.331Z,28.11
2022-09-30T07:14:25.530Z,28.23
2022-09-30T07:15:59.088Z,28.27
2022-09-30T07:17:32.339Z,28.16
2022-09-30T07:19:10.393Z,28.09
2022-09-30T07:20:48.614Z,28.09
2022-09-30T07:22:32.057Z,28.30
2022-09-30T07:24:05.726Z,28.39
2022-09-30T07:25:39.099Z,28.28
2022-09-30T07:27:13.775Z,28.12
2022-09-30T07:28:47.463Z,28.17
2022-09-30T07:30:27.094Z,28.30
2022-09-30T07:32:01.308Z,28.65
2022-09-30T07:33:35.677Z,28.90
2022-09-30T07:35:10.554Z,29.03
2022-09-30T07:36:43.951Z,28.45
2022-09-30T07:38:17.719Z,28.03
2022-09-30T07:39:50.902Z,27.60
2022-09-30T07:41:27.392Z,27.37
2022-09-30T07:43:01.975Z,27.62
2022-09-30T07:44:37.238Z,27.87
2022-09-30T07:46:12.923Z,28.12
2022-09-30T07:47:49.798Z,28.45
2022-09-30T07:49:26.652Z,28.67
2022-09-30T07:51:01.346Z,28.77
2022-09-30T07:52:34.518Z,28.96
2022-09-30T07:54:09.866Z,28.93
2022-09-30T07:55:43.179Z,28.95
2022-09-30T07:57:16.636Z,29.16
2022-09-30T07:58:49.222Z,29.33
2022-09-30T08:00:41.515Z,29.69
2022-09-30T08:02:18.278Z,29.90
2022-09-30T08:03:54.824Z,29.98
2022-09-30T08:05:28.071Z,30.03
2022-09-30T08:07:03.562Z,30.22
2022-09-30T08:08:38.158Z,30.43
2022-09-30T08:10:11.942Z,30.50
2022-09-30T08:11:45.202Z,30.68
2022-09-30T08:13:20.067Z,30.79
2022-09-30T08:14:53.415Z,30.74
2022-09-30T08:16:27.608Z,30.45
2022-09-30T08:18:01.122Z,30.43
2022-09-30T08:19:35.357Z,30.54
2022-09-30T08:21:09.171Z,30.57
2022-09-30T08:22:43.746Z,30.77
2022-09-30T08:24:17.566Z,30.53
2022-09-30T08:25:50.821Z,30.46
2022-09-30T08:27:24.292Z,30.35
2022-09-30T08:28:57.569Z,30.26
2022-09-30T08:30:31.063Z,30.37
2022-09-30T08:32:04.305Z,30.52
2022-09-30T08:33:38.368Z,30.88
2022-09-30T08:35:11.590Z,30.93
2022-09-30T08:36:46.696Z,31.02
2022-09-30T08:38:21.301Z,31.13
2022-09-30T08:39:54.978Z,31.06
2022-09-30T08:42:19.041Z,30.14
2022-09-30T08:44:07.762Z,30.42
2022-09-30T08:45:52.093Z,30.81
2022-09-30T08:47:41.340Z,31.18
2022-09-30T08:49:39.472Z,31.42
2022-09-30T08:51:29.343Z,31.52
2022-09-30T08:53:07.183Z,31.31
2022-09-30T08:54:48.517Z,31.38
2022-09-30T08:56:25.225Z,31.50
2022-09-30T08:57:59.628Z,31.71
2022-09-30T08:59:37.318Z,32.02
2022-09-30T09:01:18.362Z,32.36
2022-09-30T09:02:55.044Z,32.37
2022-09-30T09:04:28.307Z,32.10
2022-09-30T09:06:13.312Z,32.03
2022-09-30T09:07:54.805Z,32.00
2022-09-30T09:09:50.259Z,31.24
2022-09-30T09:11:43.337Z,30.87
2022-09-30T09:13:33.759Z,30.71
2022-09-30T09:15:22.866Z,30.39
2022-09-30T09:17:06.937Z,30.14
2022-09-30T09:18:47.446Z,29.89
2022-09-30T09:20:23.900Z,29.69
2022-09-30T09:22:00.973Z,29.58
2022-09-30T09:23:34.655Z,29.44
2022-09-30T09:25:15.740Z,29.20
2022-09-30T09:26:51.284Z,29.26
2022-09-30T09:28:33.853Z,29.20
2022-09-30T09:30:09.623Z,29.23
2022-09-30T09:31:43.087Z,29.22
2022-09-30T09:33:21.882Z,29.04
2022-09-30T09:34:59.771Z,29.10
2022-09-30T09:36:47.551Z,29.15
2022-09-30T09:38:27.591Z,29.16
2022-09-30T09:40:13.174Z,29.16
2022-09-30T09:41:55.597Z,29.15
2022-09-30T09:43:39.517Z,29.14
2022-09-30T09:45:22.278Z,29.11
2022-09-30T09:47:05.129Z,29.14
2022-09-30T09:48:38.456Z,29.20
2022-09-30T09:50:18.477Z,29.26
2022-09-30T09:52:05.866Z,29.10
2022-09-30T09:53:45.391Z,28.84
2022-09-30T09:55:23.968Z,28.77
2022-09-30T09:56:57.282Z,28.78
2022-09-30T09:58:31.043Z,28.84
2022-09-30T10:00:21.094Z,28.97
2022-09-30T10:01:55.588Z,29.04
2022-09-30T10:03:29.114Z,28.84
2022-09-30T10:05:03.893Z,28.90
2022-09-30T10:06:48.702Z,28.95
2022-09-30T10:08:23.603Z,28.92
2022-09-30T10:10:09.664Z,28.99
2022-09-30T10:11:44.250Z,29.05
2022-09-30T10:13:20.717Z,29.04
2022-09-30T10:14:59.861Z,28.95
2022-09-30T10:16:36.037Z,28.96
2022-09-30T10:18:20.367Z,29.05
2022-09-30T10:19:56.095Z,29.04
2022-09-30T10:21:30.832Z,29.09
2022-09-30T10:23:11.178Z,29.15
2022-09-30T10:24:44.699Z,29.20
2022-09-30T10:26:20.561Z,29.29
2022-09-30T10:27:58.489Z,29.25
2022-09-30T10:29:33.798Z,29.28
2022-09-30T10:31:08.816Z,29.29
2022-09-30T10:32:42.151Z,29.31
2022-09-30T10:34:26.953Z,29.25
2022-09-30T10:36:09.658Z,29.23
2022-09-30T10:37:52.582Z,29.14
2022-09-30T10:39:29.203Z,29.15
2022-09-30T10:41:04.246Z,29.19
2022-09-30T10:42:41.913Z,29.28
2022-09-30T10:44:20.634Z,29.35
2022-09-30T10:46:20.778Z,29.39
2022-09-30T10:47:51.173Z,29.42
2022-09-30T10:49:29.560Z,29.33
2022-09-30T10:51:03.675Z,29.31
2022-09-30T10:52:40.391Z,29.31
2022-09-30T10:54:46.671Z,29.30
2022-09-30T10:56:39.284Z,29.27
2022-09-30T10:58:24.363Z,29.35
2022-09-30T11:00:01.810Z,29.41
2022-09-30T11:01:40.047Z,29.48
2022-09-30T11:03:18.276Z,29.61
2022-09-30T11:04:59.999Z,29.64
2022-09-30T11:06:38.514Z,29.58
2022-09-30T11:08:16.841Z,29.65
2022-09-30T11:10:00.261Z,29.64
2022-09-30T11:11:38.974Z,29.74
2022-09-30T11:13:17.194Z,29.78
2022-09-30T11:14:58.850Z,29.85
2022-09-30T11:16:44.288Z,29.86
2022-09-30T11:18:23.174Z,29.83
2022-09-30T11:20:09.258Z,29.83
2022-09-30T11:21:47.919Z,29.71
2022-09-30T11:23:28.898Z,29.71
2022-09-30T11:25:08.768Z,29.75
2022-09-30T11:26:51.880Z,29.77
2022-09-30T11:28:41.518Z,29.71
2022-09-30T11:30:20.403Z,29.52
2022-09-30T11:32:00.381Z,29.50
2022-09-30T11:33:48.675Z,29.49
2022-09-30T11:35:33.548Z,29.43
2022-09-30T11:37:16.535Z,29.31
2022-09-30T11:39:10.208Z,29.22
2022-09-30T11:40:53.968Z,29.15
2022-09-30T11:42:39.004Z,29.09
2022-09-30T11:44:27.862Z,29.05
2022-09-30T11:46:19.151Z,28.98
2022-09-30T11:48:13.921Z,28.90
2022-09-30T11:50:07.780Z,28.86
2022-09-30T11:51:48.296Z,28.86
2022-09-30T11:53:36.279Z,28.86
2022-09-30T11:55:31.986Z,28.77
2022-09-30T11:57:12.507Z,28.72
2022-09-30T11:58:51.302Z,28.70
2022-09-30T12:00:24.585Z,28.75
2022-09-30T12:02:02.943Z,28.77
2022-09-30T12:03:41.872Z,28.75
2022-09-30T12:05:20.474Z,28.69
2022-09-30T12:06:57.801Z,28.66
2022-09-30T12:08:35.178Z,28.65
2022-09-30T12:10:21.668Z,28.54
2022-09-30T12:11:59.896Z,28.54
2022-09-30T12:13:39.092Z,28.50
2022-09-30T12:15:18.317Z,28.46
2022-09-30T12:16:52.157Z,28.43
2022-09-30T12:18:31.620Z,28.44
2022-09-30T12:20:12.004Z,28.51
2022-09-30T12:21:51.273Z,28.57
2022-09-30T12:23:32.892Z,28.64
2022-09-30T12:25:15.748Z,28.65
2022-09-30T12:26:49.486Z,28.72
2022-09-30T12:28:48.516Z,28.78
2022-09-30T12:30:24.499Z,28.86
2022-09-30T12:32:12.193Z,28.95
2022-09-30T12:34:00.391Z,29.06
2022-09-30T12:36:03.589Z,29.10
2022-09-30T12:37:55.103Z,29.10
2022-09-30T12:40:06.188Z,29.01
2022-09-30T12:41:54.106Z,29.04
2022-09-30T12:44:25.336Z,29.09
2022-09-30T12:46:15.816Z,29.12
2022-09-30T12:47:51.713Z,29.15
2022-09-30T12:49:27.844Z,29.09
2022-09-30T12:51:01.808Z,29.13
2022-09-30T12:52:38.564Z,29.17
2022-09-30T12:54:17.322Z,29.22
2022-09-30T12:55:51.355Z,29.29
2022-09-30T12:57:28.311Z,29.37
2022-09-30T12:59:03.888Z,29.43
2022-09-30T13:00:37.833Z,29.49
2022-09-30T13:02:31.863Z,29.59
2022-09-30T13:04:18.922Z,29.65
2022-09-30T13:05:58.054Z,29.71
2022-09-30T13:07:34.747Z,29.76
2022-09-30T13:09:22.580Z,29.75
2022-09-30T13:11:00.380Z,29.74
2022-09-30T13:13:09.962Z,29.74
2022-09-30T13:14:44.551Z,29.71
2022-09-30T13:16:56.512Z,29.71
2022-09-30T13:19:02.117Z,29.70
2022-09-30T13:20:55.325Z,29.70
2022-09-30T13:22:58.722Z,29.68
2022-09-30T13:25:05.297Z,29.72
2022-09-30T13:26:46.533Z,29.76
2022-09-30T13:28:32.205Z,29.72
2022-09-30T13:30:36.340Z,29.70
2022-09-30T13:32:10.802Z,29.69
2022-09-30T13:33:47.126Z,29.62
2022-09-30T13:35:32.941Z,29.72
2022-09-30T13:37:07.214Z,29.74
2022-09-30T13:38:41.519Z,29.77
2022-09-30T13:40:32.963Z,29.72
2022-09-30T13:42:26.994Z,29.68
2022-09-30T13:44:08.202Z,29.65
2022-09-30T13:45:45.093Z,29.65
2022-09-30T13:47:31.136Z,29.68
2022-09-30T13:49:12.180Z,29.71
2022-09-30T13:50:50.482Z,29.71
2022-09-30T13:52:29.175Z,29.70
2022-09-30T13:54:09.048Z,29.69
2022-09-30T13:55:46.372Z,29.70
2022-09-30T13:57:25.226Z,29.51
2022-09-30T13:59:28.950Z,29.73
2022-09-30T14:01:12.941Z,29.79
2022-09-30T14:03:23.836Z,29.82
2022-09-30T14:05:26.578Z,29.85
2022-09-30T14:07:11.535Z,29.85
2022-09-30T14:09:05.870Z,29.84
2022-09-30T14:10:54.356Z,29.81
2022-09-30T14:12:51.878Z,29.77
2022-09-30T14:15:02.476Z,29.69
2022-09-30T14:16:58.367Z,29.69
2022-09-30T14:18:54.822Z,29.64
2022-09-30T14:20:41.254Z,29.62
2022-09-30T14:22:16.914Z,29.56
2022-09-30T14:24:00.576Z,29.51
2022-09-30T14:25:41.362Z,29.48
2022-09-30T14:27:34.638Z,29.46
2022-09-30T14:29:18.653Z,29.43
2022-09-30T14:31:13.324Z,29.40
2022-09-30T14:32:49.400Z,29.31
2022-09-30T14:34:25.794Z,29.37
2022-09-30T14:36:03.234Z,29.35
2022-09-30T14:37:43.387Z,29.31
2022-09-30T14:39:21.221Z,29.28
2022-09-30T14:40:57.209Z,29.26
2022-09-30T14:42:35.025Z,29.26
2022-09-30T14:44:08.793Z,29.25
2022-09-30T14:45:47.414Z,29.21
2022-09-30T14:47:23.194Z,29.20
2022-09-30T14:49:01.859Z,29.17
2022-09-30T14:50:43.359Z,29.12
2022-09-30T14:52:36.291Z,29.06
2022-09-30T14:54:20.451Z,29.02
2022-09-30T14:55:53.198Z,28.97
2022-09-30T14:57:27.121Z,28.98
2022-09-30T14:59:01.822Z,28.97
2022-09-30T15:00:36.728Z,28.95
2022-09-30T15:02:18.543Z,28.94
2022-09-30T15:03:55.670Z,28.94
2022-09-30T15:05:28.686Z,28.91
2022-09-30T15:07:04.508Z,28.88
2022-09-30T15:08:37.744Z,28.88
2022-09-30T15:10:20.112Z,28.93
2022-09-30T15:11:53.598Z,28.96
2022-09-30T15:13:31.254Z,29.12
2022-09-30T15:15:25.396Z,29.51
2022-09-30T15:17:03.756Z,29.81
2022-09-30T15:18:47.953Z,30.15
2022-09-30T15:20:30.977Z,30.23
2022-09-30T15:22:09.652Z,30.15
2022-09-30T15:23:45.870Z,30.00
2022-09-30T15:25:22.294Z,30.11
2022-09-30T15:26:57.189Z,30.16
2022-09-30T15:28:30.715Z,30.17
2022-09-30T15:30:23.335Z,30.08
2022-09-30T15:32:01.462Z,29.85
2022-09-30T15:33:35.878Z,29.61
2022-09-30T15:35:16.663Z,29.34
2022-09-30T15:36:58.934Z,29.02
2022-09-30T15:38:33.704Z,28.77
2022-09-30T15:40:34.124Z,28.53
2022-09-30T15:42:10.637Z,28.28
2022-09-30T15:43:46.296Z,28.12
2022-09-30T15:45:35.129Z,27.94
2022-09-30T15:47:11.847Z,27.79
2022-09-30T15:48:44.912Z,27.63
2022-09-30T15:50:43.253Z,27.44
2022-09-30T15:52:29.571Z,27.24
2022-09-30T15:54:04.045Z,27.07
2022-09-30T15:55:41.877Z,26.90
2022-09-30T15:57:48.866Z,26.72
2022-09-30T15:59:22.751Z,26.55
2022-09-30T16:01:15.330Z,26.39
2022-09-30T16:02:48.738Z,26.26
2022-09-30T16:04:26.867Z,26.16
2022-09-30T16:06:07.678Z,26.08
2022-09-30T16:07:43.546Z,25.99
2022-09-30T16:09:23.421Z,25.92
2022-09-30T16:10:58.465Z,25.84
2022-09-30T16:12:36.255Z,25.74
2022-09-30T16:14:20.495Z,25.66
2022-09-30T16:15:57.268Z,25.58
2022-09-30T16:17:33.994Z,25.47
2022-09-30T16:19:10.605Z,25.42
2022-09-30T16:20:57.489Z,25.32
2022-09-30T16:22:52.910Z,25.21
2022-09-30T16:24:48.659Z,25.07
2022-09-30T16:26:28.398Z,24.97
2022-09-30T16:28:07.142Z,24.93
2022-09-30T16:29:40.767Z,24.81
2022-09-30T16:31:15.478Z,24.72
2022-09-30T16:32:51.888Z,24.65
2022-09-30T16:34:27.872Z,24.56
2022-09-30T16:36:01.172Z,24.45
2022-09-30T16:37:35.250Z,24.36
2022-09-30T16:39:13.888Z,24.27
2022-09-30T16:40:47.355Z,24.09
2022-09-30T16:42:20.250Z,23.92
2022-09-30T16:43:53.440Z,23.81
2022-09-30T16:45:29.530Z,23.68
2022-09-30T16:47:02.915Z,23.57
2022-09-30T16:48:36.203Z,23.48
2022-09-30T16:50:23.634Z,23.38
2022-09-30T16:51:57.017Z,23.29
2022-09-30T16:53:30.385Z,23.24
2022-09-30T16:55:03.634Z,23.20
2022-09-30T16:56:37.157Z,23.18
2022-09-30T16:58:13.359Z,23.14
2022-09-30T16:59:46.640Z,23.07
2022-09-30T17:01:23.480Z,22.92
2022-09-30T17:02:56.901Z,22.76
2022-09-30T17:04:33.276Z,22.67
2022-09-30T17:06:06.780Z,22.65
2022-09-30T17:07:39.975Z,22.64
2022-09-30T17:09:13.285Z,22.59
2022-09-30T17:10:50.083Z,22.55
2022-09-30T17:12:23.524Z,22.53
2022-09-30T17:13:56.801Z,22.47
2022-09-30T17:15:32.135Z,22.36
2022-09-30T17:17:09.823Z,22.27
2022-09-30T17:18:46.368Z,22.19
2022-09-30T17:20:21.495Z,22.11
2022-09-30T17:21:54.656Z,22.10
2022-09-30T17:23:28.152Z,22.01
2022-09-30T17:25:01.456Z,21.86
2022-09-30T17:26:34.989Z,21.80
2022-09-30T17:28:09.086Z,21.70
2022-09-30T17:29:42.431Z,21.56
2022-09-30T17:31:16.162Z,21.34
2022-09-30T17:32:50.899Z,21.27
2022-09-30T17:34:24.634Z,21.16
2022-09-30T17:36:02.350Z,21.11
2022-09-30T17:37:38.508Z,20.99
2022-09-30T17:39:13.442Z,21.03
2022-09-30T17:41:04.508Z,21.06
2022-09-30T17:42:58.130Z,21.10
2022-09-30T17:44:32.612Z,21.12
2022-09-30T17:46:06.166Z,21.10
2022-09-30T17:47:41.459Z,21.06
2022-09-30T17:49:21.896Z,21.09
2022-09-30T17:50:57.200Z,21.04
2022-09-30T17:52:34.357Z,20.93
2022-09-30T17:54:08.395Z,20.86
2022-09-30T17:55:42.207Z,20.81
2022-09-30T17:57:15.413Z,20.72
2022-09-30T17:58:50.831Z,20.67
2022-09-30T18:00:24.764Z,20.58
2022-09-30T18:01:58.083Z,20.48
2022-09-30T18:03:32.493Z,20.51
2022-09-30T18:05:07.574Z,20.49
2022-09-30T18:06:40.987Z,20.53
2022-09-30T18:08:14.242Z,20.54
2022-09-30T18:09:47.469Z,20.53
2022-09-30T18:11:22.235Z,20.54
2022-09-30T18:12:56.529Z,20.50
2022-09-30T18:14:35.336Z,20.45
2022-09-30T18:16:09.133Z,20.42
2022-09-30T18:17:42.604Z,20.42
2022-09-30T18:19:15.867Z,20.40
2022-09-30T18:20:52.185Z,20.41
2022-09-30T18:22:25.502Z,20.33
2022-09-30T18:23:58.980Z,20.24
2022-09-30T18:25:32.369Z,20.14
2022-09-30T18:27:04.800Z,20.13
2022-09-30T18:28:38.175Z,20.08
2022-09-30T18:30:13.250Z,20.03
2022-09-30T18:31:46.663Z,19.94
2022-09-30T18:33:21.685Z,19.91
2022-09-30T18:34:54.938Z,19.91
2022-09-30T18:36:32.477Z,19.92
2022-09-30T18:38:06.686Z,19.92
2022-09-30T18:39:40.166Z,19.89
2022-09-30T18:41:13.519Z,19.86
2022-09-30T18:42:47.219Z,19.80
2022-09-30T18:44:20.487Z,19.77
2022-09-30T18:45:56.765Z,19.73
2022-09-30T18:47:30.460Z,19.74
2022-09-30T18:49:03.755Z,19.73
2022-09-30T18:50:37.524Z,19.68
2022-09-30T18:52:12.240Z,19.62
2022-09-30T18:53:45.743Z,19.59
2022-09-30T18:55:19.186Z,19.59
2022-09-30T18:56:52.504Z,19.59
2022-09-30T18:58:25.820Z,19.58
2022-09-30T18:59:59.091Z,19.56
2022-09-30T19:01:33.150Z,19.54
2022-09-30T19:03:10.296Z,19.52
2022-09-30T19:04:43.477Z,19.48
2022-09-30T19:06:16.981Z,19.47
2022-09-30T19:07:53.649Z,19.47
2022-09-30T19:09:28.391Z,19.44
2022-09-30T19:11:10.701Z,19.36
2022-09-30T19:12:45.827Z,19.27
2022-09-30T19:14:20.037Z,19.24
2022-09-30T19:15:53.426Z,19.19
2022-09-30T19:17:26.660Z,19.19
2022-09-30T19:19:01.335Z,19.20
2022-09-30T19:20:37.607Z,19.21
2022-09-30T19:22:10.862Z,19.18
2022-09-30T19:23:45.912Z,19.12
2022-09-30T19:25:19.655Z,19.03
2022-09-30T19:26:53.467Z,18.98
2022-09-30T19:28:27.369Z,18.99
2022-09-30T19:30:00.637Z,18.99
2022-09-30T19:31:36.015Z,18.99
2022-09-30T19:33:09.980Z,18.98
2022-09-30T19:34:43.634Z,18.99
2022-09-30T19:36:17.832Z,18.95
2022-09-30T19:38:00.982Z,18.91
2022-09-30T19:39:45.495Z,18.89
2022-09-30T19:41:19.471Z,18.87
2022-09-30T19:42:52.652Z,18.81
2022-09-30T19:44:26.101Z,18.71
2022-09-30T19:46:01.398Z,18.65
2022-09-30T19:47:35.137Z,18.68
2022-09-30T19:49:08.384Z,18.72
2022-09-30T19:50:41.675Z,18.73
2022-09-30T19:52:21.980Z,18.68
2022-09-30T19:54:05.488Z,18.63
2022-09-30T19:55:50.053Z,18.58
2022-09-30T19:57:24.292Z,18.49
2022-09-30T19:58:59.336Z,18.41
2022-09-30T20:00:32.507Z,18.39
2022-09-30T20:02:05.832Z,18.23
2022-09-30T20:03:40.633Z,18.27
2022-09-30T20:05:14.065Z,18.26
2022-09-30T20:06:47.239Z,18.27
2022-09-30T20:08:20.557Z,18.27
2022-09-30T20:09:53.727Z,18.29
2022-09-30T20:11:33.543Z,18.35
2022-09-30T20:13:07.033Z,18.37
2022-09-30T20:14:57.751Z,18.39
2022-09-30T20:16:30.201Z,18.39
2022-09-30T20:18:03.522Z,18.32
2022-09-30T20:19:36.724Z,18.25
2022-09-30T20:21:10.419Z,18.16
2022-09-30T20:22:43.670Z,18.15
2022-09-30T20:24:19.254Z,18.05
2022-09-30T20:25:52.941Z,17.96
2022-09-30T20:27:28.101Z,17.93
2022-09-30T20:29:02.173Z,17.90
2022-09-30T20:30:39.486Z,17.82
2022-09-30T20:32:12.633Z,17.73
2022-09-30T20:33:46.295Z,17.67
2022-09-30T20:35:21.394Z,17.60
2022-09-30T20:36:54.938Z,17.52
2022-09-30T20:38:28.321Z,17.50
2022-09-30T20:40:00.926Z,17.51
2022-09-30T20:41:35.829Z,17.54
2022-09-30T20:43:11.798Z,17.55
2022-09-30T20:44:45.336Z,17.56
2022-09-30T20:46:18.598Z,17.54
2022-09-30T20:47:51.970Z,17.53
2022-09-30T20:49:25.471Z,17.50
2022-09-30T20:50:58.751Z,17.49
2022-09-30T20:52:32.126Z,17.43
2022-09-30T20:54:05.503Z,17.36
2022-09-30T20:55:41.121Z,17.25
2022-09-30T20:57:14.291Z,17.15
2022-09-30T20:58:49.099Z,17.07
2022-09-30T21:00:22.746Z,17.01
2022-09-30T21:01:56.123Z,16.99
2022-09-30T21:03:32.111Z,16.98
2022-09-30T21:05:06.013Z,16.96
2022-09-30T21:06:39.429Z,16.94
2022-09-30T21:08:12.608Z,16.87